KNPA

Airport

Pensacola, Florida, USA
METAR KNPA 181456Z 35007KT 10SM CLR M03/M10 A3054 RMK AO2 SLP343 T10281100 51013 $
Observed Flight Rules
Jan-18 @ 14:56 UTC (22 minutes ago) Visual Flight Rules
Wind Visibility Clouds
350° at 7 knots 10 miles
  • Clear skies
Temperatures Readings
Current -3°C / 27°F
Dewpoint -10°C / 14°F
Humidity 59%
Altimeter 30.54" Hg
Pressure 1034.3 hPa
Elevation 9
METAR KNPA 181456Z 35007KT 10SM CLR M03/M10 A3054 RMK AO2 SLP343 T10281100 51013 $
Observed Flight Rules
Jan-18 @ 14:56 UTC
(22 minutes ago)
VFR
Wind Visibility
350° at 7 knots 10 miles
Clouds
  • Clear skies
Temperature Dewpoint
-3°C / 27°F -10°C / 14°F
Humidity Altimeter Pressure
59% 30.54" Hg 1034.3 hPa